Time;durP1;ratioP1;P1;durP2;ratioP2;P2;SDS_P1;SDS_P2;PMS_P1;PMS_P2;Temp;Humidity;BMP_temperature;BMP_pressure;BME280_temperature;BME280_humidity;BME280_pressure;Samples;Min_cycle;Max_cycle;Signal;HPM_P1;HPM_P2
2022/05/26 00:01:45;;;;;;;10.90;5.82;;;15.40;99.90;;;;;;5071952;28;20250;-80
2022/05/26 00:04:16;;;;;;;11.05;6.20;;;15.50;99.90;;;;;;5073001;28;20206;-80
2022/05/26 00:06:47;;;;;;;10.07;5.88;;;15.50;99.90;;;;;;5074244;28;20211;-80
2022/05/26 00:09:18;;;;;;;10.73;5.55;;;15.60;99.90;;;;;;5073992;28;20568;-81
2022/05/26 00:11:49;;;;;;;9.88;5.40;;;15.60;99.90;;;;;;5073275;28;20593;-81
2022/05/26 00:14:20;;;;;;;9.77;5.18;;;15.70;99.90;;;;;;5077704;28;20201;-80
2022/05/26 00:16:53;;;;;;;7.65;5.40;;;15.80;99.90;;;;;;5072107;28;20207;-81
2022/05/26 00:19:23;;;;;;;12.32;7.53;;;15.80;99.90;;;;;;5072320;28;20200;-80
2022/05/26 00:21:54;;;;;;;8.82;5.88;;;15.80;99.90;;;;;;5071008;28;20201;-80
2022/05/26 00:24:25;;;;;;;9.43;5.70;;;15.90;99.90;;;;;;5072381;28;20201;-79
2022/05/26 00:26:56;;;;;;;10.85;5.90;;;15.90;99.90;;;;;;5072528;28;20266;-81
2022/05/26 00:29:26;;;;;;;11.75;5.97;;;16.10;99.90;;;;;;5068424;28;20200;-81
2022/05/26 00:31:59;;;;;;;11.63;6.25;;;16.20;99.90;;;;;;5066891;28;20224;-79
2022/05/26 00:34:29;;;;;;;12.27;6.25;;;16.40;99.90;;;;;;5072130;28;20684;-79
2022/05/26 00:37:00;;;;;;;8.70;5.65;;;16.40;99.90;;;;;;5072692;28;20207;-81
2022/05/26 00:39:31;;;;;;;10.70;6.80;;;16.50;99.90;;;;;;5072134;28;20721;-80
2022/05/26 00:42:03;;;;;;;12.15;6.38;;;16.60;99.90;;;;;;5071350;28;20207;-80
2022/05/26 00:44:35;;;;;;;8.55;5.55;;;16.60;99.90;;;;;;5072349;28;20276;-79
2022/05/26 00:47:11;;;;;;;12.18;5.85;;;16.70;99.90;;;;;;5072440;28;20760;-80
2022/05/26 00:49:46;;;;;;;8.38;5.75;;;16.90;99.90;;;;;;5070478;28;20184;-77
2022/05/26 00:52:20;;;;;;;13.27;6.50;;;17.00;99.90;;;;;;5069840;28;20191;-80
2022/05/26 00:54:53;;;;;;;11.52;6.03;;;17.10;99.90;;;;;;5070318;28;20200;-80
2022/05/26 00:57:28;;;;;;;10.05;5.57;;;17.00;99.90;;;;;;5065460;28;20189;-80
2022/05/26 01:00:02;;;;;;;9.35;5.57;;;17.20;99.90;;;;;;5072017;28;20200;-80
2022/05/26 01:02:38;;;;;;;11.30;5.78;;;17.30;99.90;;;;;;5069102;28;20207;-79
2022/05/26 01:05:14;;;;;;;8.88;5.43;;;17.50;99.90;;;;;;5071503;28;20253;-80
2022/05/26 01:07:45;;;;;;;9.32;5.70;;;17.60;99.90;;;;;;5068459;28;20272;-81
2022/05/26 01:10:18;;;;;;;8.50;5.10;;;17.70;99.90;;;;;;5067203;28;20192;-81
2022/05/26 01:12:49;;;;;;;10.30;5.45;;;17.80;99.90;;;;;;5069308;28;20254;-77
2022/05/26 01:15:22;;;;;;;7.82;3.90;;;17.80;99.90;;;;;;5070944;28;20221;-80
2022/05/26 01:18:04;;;;;;;6.68;3.10;;;18.00;99.90;;;;;;5070379;28;20714;-80
2022/05/26 01:20:55;;;;;;;9.27;3.20;;;18.10;99.90;;;;;;5069098;28;20310;-78
2022/05/26 01:24:00;;;;;;;5.65;2.58;;;18.20;99.90;;;;;;5070661;28;20576;-81
2022/05/26 01:27:03;;;;;;;4.82;2.97;;;18.40;99.90;;;;;;5071601;28;20204;-80
2022/05/26 01:30:03;;;;;;;9.90;4.30;;;18.40;99.90;;;;;;5071401;28;20200;-76
2022/05/26 01:32:47;;;;;;;5.63;2.85;;;18.50;99.90;;;;;;5071297;28;20215;-80
2022/05/26 01:35:24;;;;;;;8.68;2.63;;;18.50;99.90;;;;;;5069244;28;20677;-81
2022/05/26 01:38:11;;;;;;;2.83;2.05;;;18.60;99.90;;;;;;5071787;28;20593;-80
2022/05/26 01:40:47;;;;;;;4.13;2.17;;;18.50;99.90;;;;;;5070079;28;20532;-80
2022/05/26 01:43:25;;;;;;;3.47;2.20;;;18.50;99.90;;;;;;5069336;28;20184;-81
2022/05/26 01:46:02;;;;;;;3.47;2.00;;;18.70;99.90;;;;;;5072099;28;20192;-82
2022/05/26 01:48:40;;;;;;;3.80;2.33;;;18.80;99.90;;;;;;5072308;28;20193;-81
2022/05/26 01:51:16;;;;;;;13.82;5.88;;;18.90;99.90;;;;;;5072129;28;20641;-81
2022/05/26 01:53:52;;;;;;;3.72;2.10;;;19.00;99.90;;;;;;5069789;28;20192;-81
2022/05/26 01:56:28;;;;;;;5.22;2.30;;;19.00;99.90;;;;;;5071503;28;20614;-82
2022/05/26 01:59:06;;;;;;;4.63;2.10;;;19.10;99.90;;;;;;5071453;28;20192;-81
2022/05/26 02:01:39;;;;;;;4.70;1.83;;;19.20;99.90;;;;;;5071487;28;20189;-80
2022/05/26 02:04:15;;;;;;;3.50;1.98;;;19.30;99.90;;;;;;5071509;28;20218;-81
2022/05/26 02:06:51;;;;;;;3.97;1.60;;;19.30;99.90;;;;;;5070013;28;20602;-83
2022/05/26 02:09:28;;;;;;;3.38;1.90;;;19.40;99.90;;;;;;5074646;28;20189;-83
2022/05/26 02:12:02;;;;;;;4.43;2.20;;;19.50;99.90;;;;;;5075590;28;20188;-82
2022/05/26 02:14:36;;;;;;;5.43;1.60;;;19.50;99.90;;;;;;5074534;28;20189;-80
2022/05/26 02:17:13;;;;;;;1.90;1.42;;;19.60;99.90;;;;;;5075260;28;20686;-78
2022/05/26 02:19:50;;;;;;;2.40;1.50;;;19.60;99.90;;;;;;5073353;28;20557;-80
2022/05/26 02:22:25;;;;;;;3.65;1.42;;;19.70;99.90;;;;;;5073476;28;20638;-80
2022/05/26 02:25:01;;;;;;;1.55;1.40;;;19.70;99.90;;;;;;5074975;28;20241;-81
2022/05/26 02:27:33;;;;;;;3.00;1.60;;;19.80;99.90;;;;;;5075065;28;20246;-80
2022/05/26 02:30:04;;;;;;;2.50;1.30;;;19.80;99.90;;;;;;5072387;28;20250;-81
2022/05/26 02:32:37;;;;;;;2.10;1.48;;;19.80;99.90;;;;;;5072761;28;20197;-79
2022/05/26 02:35:13;;;;;;;3.15;1.38;;;19.80;99.90;;;;;;5074905;28;20307;-81
2022/05/26 02:37:46;;;;;;;3.15;1.40;;;19.90;99.90;;;;;;5074779;28;20238;-81
2022/05/26 02:40:18;;;;;;;2.90;1.23;;;19.90;99.90;;;;;;5071833;28;21825;-80
2022/05/26 02:42:53;;;;;;;2.67;1.05;;;19.90;99.90;;;;;;5072704;28;20686;-81
2022/05/26 02:45:42;;;;;;;6.55;1.08;;;19.90;99.90;;;;;;5074350;28;20242;-80
2022/05/26 02:48:24;;;;;;;1.70;1.23;;;20.00;99.90;;;;;;5069897;28;20217;-81
2022/05/26 02:51:03;;;;;;;2.08;1.20;;;20.00;99.90;;;;;;5073649;28;20193;-81
2022/05/26 02:53:39;;;;;;;4.30;1.10;;;20.00;99.90;;;;;;5070868;28;20267;-79
2022/05/26 02:56:18;;;;;;;1.38;1.10;;;20.00;99.90;;;;;;5074512;28;20592;-80
2022/05/26 02:59:00;;;;;;;2.17;1.20;;;20.10;99.90;;;;;;5071958;28;20196;-80
2022/05/26 03:01:34;;;;;;;2.35;0.82;;;20.20;99.90;;;;;;5073208;28;20189;-80
2022/05/26 03:04:10;;;;;;;2.92;1.52;;;20.10;99.90;;;;;;5073193;28;20181;-82
2022/05/26 03:06:49;;;;;;;1.90;1.05;;;20.20;99.90;;;;;;5070797;28;20242;-80
2022/05/26 03:09:22;;;;;;;2.08;1.10;;;20.20;99.90;;;;;;5073008;28;20275;-79
2022/05/26 03:11:55;;;;;;;1.70;0.95;;;20.20;99.90;;;;;;5070611;28;20272;-80
2022/05/26 03:14:27;;;;;;;2.40;1.15;;;20.30;99.90;;;;;;5070429;28;20197;-79
2022/05/26 03:16:58;;;;;;;1.95;1.05;;;20.40;99.90;;;;;;5074322;28;20216;-80
2022/05/26 03:19:31;;;;;;;2.35;0.95;;;20.40;99.90;;;;;;5073343;28;20238;-79
2022/05/26 03:22:03;;;;;;;2.20;1.17;;;20.40;99.90;;;;;;5074823;28;20197;-79
2022/05/26 03:24:34;;;;;;;10.00;6.40;;;20.50;99.90;;;;;;5074210;28;20571;-80
2022/05/26 03:27:05;;;;;;;1.63;1.20;;;20.40;99.90;;;;;;5072518;28;20185;-80
2022/05/26 03:29:35;;;;;;;3.95;1.80;;;20.40;99.90;;;;;;5071491;28;20200;-80
2022/05/26 03:32:07;;;;;;;1.88;1.20;;;20.40;99.90;;;;;;5073851;28;20197;-80
2022/05/26 03:43:01;;;;;;;3.00;1.17;;;20.40;99.90;;;;;;5075857;28;20319;-81
2022/05/26 03:45:34;;;;;;;3.58;0.95;;;20.40;99.90;;;;;;5072861;28;20657;-77
2022/05/26 03:48:05;;;;;;;3.50;0.90;;;20.40;99.90;;;;;;5074181;28;20648;-80
2022/05/26 03:50:36;;;;;;;2.60;1.20;;;20.40;99.90;;;;;;5072942;28;20656;-80
2022/05/26 03:53:09;;;;;;;2.65;1.10;;;20.40;99.90;;;;;;5071071;28;20233;-79
2022/05/26 03:55:40;;;;;;;2.97;1.30;;;20.40;99.90;;;;;;5071118;28;20593;-79
2022/05/26 03:58:11;;;;;;;2.58;1.00;;;20.40;99.90;;;;;;5071131;28;20204;-80
2022/05/26 04:00:42;;;;;;;4.25;1.10;;;20.40;99.90;;;;;;5072210;28;20193;-80
2022/05/26 04:03:13;;;;;;;2.88;1.17;;;20.50;99.90;;;;;;5068605;28;20247;-79
2022/05/26 04:05:44;;;;;;;2.78;1.10;;;20.40;99.90;;;;;;5069506;28;20242;-81
2022/05/26 04:08:16;;;;;;;1.30;0.90;;;20.40;99.90;;;;;;5071742;28;20219;-80
2022/05/26 04:10:47;;;;;;;3.60;1.00;;;20.40;99.90;;;;;;5069183;28;20208;-80
2022/05/26 04:13:18;;;;;;;2.42;0.90;;;20.40;99.90;;;;;;5070597;28;20197;-80
2022/05/26 04:15:48;;;;;;;5.68;1.20;;;20.40;99.90;;;;;;5071211;28;20204;-80
2022/05/26 04:18:19;;;;;;;1.98;0.90;;;20.40;99.90;;;;;;5071872;28;20275;-80
2022/05/26 04:20:50;;;;;;;1.73;1.00;;;20.40;99.90;;;;;;5070527;28;20199;-81
2022/05/26 04:23:22;;;;;;;1.38;1.02;;;20.20;99.90;;;;;;5071359;28;20231;-81
2022/05/26 04:25:53;;;;;;;2.08;1.17;;;20.20;99.90;;;;;;5072271;28;20193;-80
2022/05/26 04:28:23;;;;;;;1.85;1.00;;;20.10;99.90;;;;;;5072963;28;20239;-80
2022/05/26 04:30:54;;;;;;;4.38;1.17;;;20.20;99.90;;;;;;5064148;28;20239;-80
2022/05/26 04:33:25;;;;;;;3.38;1.20;;;20.10;99.90;;;;;;5073133;28;20189;-80
2022/05/26 04:35:56;;;;;;;3.17;1.23;;;20.10;99.90;;;;;;5072152;28;20222;-80
2022/05/26 04:38:29;;;;;;;4.85;1.23;;;20.10;99.90;;;;;;5072906;28;20196;-79
2022/05/26 04:41:03;;;;;;;3.25;1.20;;;20.00;99.90;;;;;;5073116;28;20640;-80
2022/05/26 04:43:34;;;;;;;4.95;1.20;;;20.10;99.90;;;;;;5072903;28;20246;-78
2022/05/26 04:46:05;;;;;;;5.53;1.45;;;20.00;99.90;;;;;;5072451;28;20185;-80
2022/05/26 04:48:35;;;;;;;4.35;1.20;;;20.00;99.90;;;;;;5073743;28;20606;-80
2022/05/26 04:51:06;;;;;;;6.75;1.20;;;20.00;99.90;;;;;;5065710;28;20185;-80
2022/05/26 04:53:39;;;;;;;1.65;1.00;;;20.10;99.90;;;;;;5073064;28;20193;-78
2022/05/26 04:56:10;;;;;;;3.15;1.00;;;20.10;99.90;;;;;;5072115;28;20254;-78
2022/05/26 04:58:40;;;;;;;7.65;1.58;;;20.10;99.90;;;;;;5069681;28;20558;-79
2022/05/26 05:01:16;;;;;;;3.33;1.23;;;20.10;99.90;;;;;;5073155;28;20699;-80
2022/05/26 05:03:46;;;;;;;3.53;1.35;;;20.10;99.90;;;;;;5073775;28;20193;-80
2022/05/26 05:06:18;;;;;;;2.40;1.10;;;20.00;99.90;;;;;;5064643;28;20193;-79
2022/05/26 05:08:51;;;;;;;2.55;1.00;;;20.00;99.90;;;;;;5068561;28;20710;-81
2022/05/26 05:11:22;;;;;;;5.32;1.20;;;20.00;99.90;;;;;;5065108;28;20314;-81
2022/05/26 05:13:52;;;;;;;6.47;1.20;;;20.00;99.90;;;;;;5072832;28;20184;-80
2022/05/26 05:16:27;;;;;;;4.95;1.27;;;20.00;99.90;;;;;;5072037;28;20632;-81
2022/05/26 05:18:58;;;;;;;2.78;1.00;;;20.00;99.90;;;;;;5065622;28;20227;-78
2022/05/26 05:21:32;;;;;;;3.83;1.33;;;20.00;99.90;;;;;;5072017;28;20193;-78
2022/05/26 05:24:10;;;;;;;6.78;1.40;;;19.90;99.90;;;;;;5072581;28;20192;-79
2022/05/26 05:26:43;;;;;;;3.53;1.60;;;19.90;99.90;;;;;;5065202;28;20189;-78
2022/05/26 05:29:17;;;;;;;3.92;1.42;;;19.80;99.90;;;;;;5073020;28;20196;-78
2022/05/26 05:31:52;;;;;;;3.47;1.40;;;19.80;99.90;;;;;;5065505;28;20644;-79
2022/05/26 05:34:27;;;;;;;5.07;1.83;;;19.80;99.90;;;;;;5063850;28;20189;-77
2022/05/26 05:36:58;;;;;;;6.25;1.75;;;19.80;99.90;;;;;;5067565;28;20282;-78
2022/05/26 05:39:31;;;;;;;9.93;1.63;;;19.80;99.90;;;;;;5069772;28;20587;-78
2022/05/26 05:42:03;;;;;;;5.47;1.63;;;19.70;99.90;;;;;;5072408;28;20189;-78
2022/05/26 05:44:35;;;;;;;3.08;1.40;;;19.70;99.90;;;;;;5071898;28;20195;-78
2022/05/26 05:47:06;;;;;;;4.78;1.25;;;19.70;99.90;;;;;;5071786;28;20234;-78
2022/05/26 05:49:37;;;;;;;2.17;1.27;;;19.70;99.90;;;;;;5067985;28;20186;-77
2022/05/26 05:52:11;;;;;;;1.58;1.00;;;19.70;99.90;;;;;;5072678;28;20185;-77
2022/05/26 05:54:43;;;;;;;6.13;1.20;;;19.70;99.90;;;;;;5072341;28;20185;-78
2022/05/26 05:57:14;;;;;;;3.67;1.08;;;19.70;99.90;;;;;;5065477;28;20258;-78
2022/05/26 05:59:45;;;;;;;3.65;1.20;;;19.60;99.90;;;;;;5072231;28;20637;-77
2022/05/26 06:02:15;;;;;;;3.58;1.40;;;19.60;99.90;;;;;;5063090;28;20659;-78
2022/05/26 06:04:46;;;;;;;3.35;1.20;;;19.50;99.90;;;;;;5071981;28;20647;-78
2022/05/26 06:07:18;;;;;;;5.93;1.25;;;19.50;99.90;;;;;;5064438;28;20235;-78
2022/05/26 06:09:51;;;;;;;4.07;1.15;;;19.50;99.90;;;;;;5072448;28;20193;-78
2022/05/26 06:12:22;;;;;;;2.92;1.10;;;19.50;99.90;;;;;;5066731;28;20193;-77
2022/05/26 06:14:53;;;;;;;2.58;1.02;;;19.40;99.90;;;;;;5071936;28;20648;-78
2022/05/26 06:17:23;;;;;;;4.07;1.25;;;19.30;99.90;;;;;;5071197;28;20640;-76
2022/05/26 06:19:54;;;;;;;3.13;1.27;;;19.30;99.90;;;;;;5072300;28;20193;-77
2022/05/26 06:22:26;;;;;;;3.42;1.05;;;19.20;99.90;;;;;;5072291;28;20185;-78
2022/05/26 06:24:58;;;;;;;3.72;1.10;;;19.10;99.90;;;;;;5072341;28;20225;-78
2022/05/26 06:30:17;;;;;;;3.15;1.10;;;19.00;99.90;;;;;;5071850;28;20274;-77
2022/05/26 06:38:24;;;;;;;5.13;1.60;;;18.80;99.90;;;;;;5069985;28;20718;-78
2022/05/26 06:40:57;;;;;;;3.60;1.70;;;18.70;99.90;;;;;;5073415;28;20197;-78
2022/05/26 06:43:47;;;;;;;4.40;1.67;;;18.70;99.90;;;;;;5063624;28;20739;-77
2022/05/26 06:46:18;;;;;;;3.80;1.48;;;18.60;99.90;;;;;;5068717;28;20200;-75
2022/05/26 06:48:49;;;;;;;2.58;1.40;;;18.60;99.90;;;;;;5070575;28;20197;-79
2022/05/26 06:51:19;;;;;;;4.80;1.60;;;18.50;99.90;;;;;;5068813;28;20295;-78
2022/05/26 06:53:50;;;;;;;2.67;1.33;;;18.40;99.90;;;;;;5068986;28;20196;-78
2022/05/26 06:56:23;;;;;;;3.80;1.10;;;18.40;99.90;;;;;;5075249;28;20246;-78
2022/05/26 06:58:53;;;;;;;3.30;1.50;;;18.30;99.90;;;;;;5068519;28;20209;-76
2022/05/26 07:01:24;;;;;;;2.92;1.17;;;18.20;99.90;;;;;;5071344;28;20250;-76
2022/05/26 07:03:55;;;;;;;2.95;1.40;;;18.20;99.90;;;;;;5073424;28;20201;-77
2022/05/26 07:06:27;;;;;;;3.60;1.20;;;18.20;99.90;;;;;;5074956;28;20619;-79
2022/05/26 07:08:58;;;;;;;3.72;1.48;;;18.20;99.90;;;;;;5067088;28;20204;-77
2022/05/26 07:11:32;;;;;;;5.82;1.67;;;18.10;99.90;;;;;;5075154;28;20197;-79
2022/05/26 07:14:03;;;;;;;2.47;1.40;;;18.10;99.90;;;;;;5075483;28;20250;-79
2022/05/26 07:16:33;;;;;;;3.95;1.60;;;18.00;99.90;;;;;;5075255;28;20254;-78
2022/05/26 07:19:04;;;;;;;2.17;1.75;;;18.00;99.90;;;;;;5076894;28;20228;-76
2022/05/26 07:21:35;;;;;;;5.53;1.88;;;18.00;99.90;;;;;;5073459;28;20209;-78
2022/05/26 07:24:06;;;;;;;3.13;1.40;;;17.90;99.90;;;;;;5070911;28;20671;-78
2022/05/26 07:26:39;;;;;;;2.58;1.52;;;17.90;99.90;;;;;;5069225;28;20595;-80
2022/05/26 07:29:10;;;;;;;3.17;1.45;;;17.90;99.90;;;;;;5068781;28;20204;-75
2022/05/26 07:31:40;;;;;;;1.75;1.40;;;17.80;99.90;;;;;;5066560;28;20197;-79
2022/05/26 07:34:11;;;;;;;1.80;1.50;;;17.80;99.90;;;;;;5072791;28;20205;-80
2022/05/26 07:42:20;;;;;;;2.10;1.48;;;17.70;99.90;;;;;;5071617;28;20240;-76
2022/05/26 07:44:53;;;;;;;4.50;1.50;;;17.70;99.90;;;;;;5072866;28;20739;-78
2022/05/26 07:47:26;;;;;;;3.03;1.30;;;17.60;99.90;;;;;;5072591;28;20197;-79
2022/05/26 07:49:57;;;;;;;7.30;1.63;;;17.50;99.90;;;;;;5075138;28;20242;-77
2022/05/26 07:52:28;;;;;;;3.47;1.45;;;17.60;99.90;;;;;;5072366;28;20196;-78
2022/05/26 07:54:58;;;;;;;5.88;1.48;;;17.60;99.90;;;;;;5072414;28;20197;-79
2022/05/26 07:57:32;;;;;;;5.55;1.67;;;17.50;99.90;;;;;;5069573;28;20719;-80
2022/05/26 08:00:03;;;;;;;3.80;1.27;;;17.50;99.90;;;;;;5074311;28;20222;-77
2022/05/26 08:02:34;;;;;;;4.40;1.70;;;17.50;99.90;;;;;;5071981;28;20200;-76
2022/05/26 08:05:05;;;;;;;3.65;2.15;;;17.40;99.90;;;;;;5077546;28;20686;-76
2022/05/26 08:07:35;;;;;;;160.40;87.03;;;17.30;99.90;;;;;;5073803;28;20250;-76
2022/05/26 08:10:07;;;;;;;76.30;42.47;;;17.40;99.90;;;;;;5076169;28;20560;-77
2022/05/26 08:12:39;;;;;;;31.65;18.60;;;17.30;99.90;;;;;;5068925;28;20221;-78
2022/05/26 08:15:10;;;;;;;21.67;12.82;;;17.30;99.90;;;;;;5076055;28;20196;-78
2022/05/26 08:17:42;;;;;;;17.10;8.13;;;17.20;99.90;;;;;;5072772;28;20228;-77
2022/05/26 08:20:13;;;;;;;12.57;7.13;;;17.20;99.90;;;;;;5073110;28;22287;-78
2022/05/26 08:22:44;;;;;;;4.05;1.70;;;17.20;99.90;;;;;;5069613;28;20246;-77
2022/05/26 08:25:15;;;;;;;11.65;7.18;;;17.20;99.90;;;;;;5073250;28;20208;-77
2022/05/26 08:27:47;;;;;;;7.22;3.55;;;17.10;99.90;;;;;;5072721;28;20201;-76
2022/05/26 08:30:18;;;;;;;4.50;2.22;;;17.00;99.90;;;;;;5072086;28;20238;-76
2022/05/26 08:32:48;;;;;;;5.40;3.00;;;17.00;99.90;;;;;;5072597;28;20208;-76
2022/05/26 08:35:19;;;;;;;7.13;4.10;;;16.90;99.90;;;;;;5072920;28;20216;-76
2022/05/26 08:37:50;;;;;;;2.75;1.80;;;16.90;99.90;;;;;;5072357;28;20270;-76
2022/05/26 08:40:39;;;;;;;5.50;2.20;;;16.90;99.90;;;;;;5073346;28;20637;-78
2022/05/26 08:43:19;;;;;;;5.35;3.35;;;16.80;99.90;;;;;;5072743;28;20192;-77
2022/05/26 08:45:54;;;;;;;7.22;3.75;;;16.70;99.90;;;;;;5071336;28;20200;-76
2022/05/26 08:48:48;;;;;;;4.68;2.42;;;16.70;99.90;;;;;;5072603;28;20214;-77
2022/05/26 08:51:27;;;;;;;4.32;1.92;;;16.70;99.90;;;;;;5070270;28;20292;-78
2022/05/26 08:54:02;;;;;;;4.18;1.98;;;16.70;99.90;;;;;;5071476;28;20226;-78
2022/05/26 08:56:33;;;;;;;4.10;2.20;;;16.60;99.90;;;;;;5074433;28;20199;-79
2022/05/26 08:59:13;;;;;;;5.45;2.40;;;16.60;99.90;;;;;;5072120;28;20262;-79
2022/05/26 09:01:46;;;;;;;4.57;2.40;;;16.60;99.90;;;;;;5073737;28;20199;-79
2022/05/26 09:04:19;;;;;;;5.05;2.17;;;16.50;99.90;;;;;;5073334;28;20192;-79
2022/05/26 09:15:23;;;;;;;4.75;2.53;;;16.40;99.90;;;;;;5073190;28;20671;-80
2022/05/26 09:17:53;;;;;;;5.35;2.42;;;16.40;99.90;;;;;;5071425;28;20263;-79
2022/05/26 09:20:35;;;;;;;5.82;2.40;;;16.30;99.90;;;;;;5073210;28;20598;-80
2022/05/26 09:23:16;;;;;;;4.78;2.42;;;16.30;99.90;;;;;;5065991;28;20220;-78
2022/05/26 09:25:49;;;;;;;4.50;2.47;;;16.30;99.90;;;;;;5069246;28;20610;-79
2022/05/26 09:28:31;;;;;;;4.63;2.10;;;16.30;99.90;;;;;;5067559;28;20193;-78
2022/05/26 09:31:21;;;;;;;4.97;2.13;;;16.20;99.90;;;;;;5071119;28;20195;-78
2022/05/26 09:34:11;;;;;;;4.53;2.20;;;16.20;99.90;;;;;;5070015;28;20225;-78
2022/05/26 09:36:46;;;;;;;8.88;2.53;;;16.20;99.90;;;;;;5070982;28;20250;-78
2022/05/26 09:39:21;;;;;;;5.40;2.35;;;16.20;99.90;;;;;;5072286;28;20219;-79
2022/05/26 09:41:53;;;;;;;4.63;2.50;;;16.20;99.90;;;;;;5070292;28;20200;-79
2022/05/26 09:44:47;;;;;;;3.83;2.58;;;16.10;99.90;;;;;;5070547;28;20239;-78
2022/05/26 09:47:30;;;;;;;5.28;2.70;;;16.10;99.90;;;;;;5065351;28;20643;-79
2022/05/26 09:50:03;;;;;;;4.35;2.67;;;16.10;99.90;;;;;;5069004;28;20200;-79
2022/05/26 09:52:44;;;;;;;4.65;2.70;;;16.10;99.90;;;;;;5070822;28;20597;-78
2022/05/26 09:55:21;;;;;;;6.75;2.80;;;16.10;99.90;;;;;;5068718;28;20224;-79
2022/05/26 09:57:57;;;;;;;5.93;2.78;;;16.00;99.90;;;;;;5070985;28;20604;-78
2022/05/26 10:00:38;;;;;;;9.98;3.00;;;16.00;99.90;;;;;;5065212;28;20249;-78
2022/05/26 10:03:23;;;;;;;6.80;3.13;;;16.00;99.90;;;;;;5071915;28;20184;-78
2022/05/26 10:06:05;;;;;;;6.22;3.22;;;16.00;99.90;;;;;;5068285;28;20283;-78
2022/05/26 10:08:43;;;;;;;7.43;2.97;;;16.00;99.90;;;;;;5070135;28;20543;-78
2022/05/26 10:11:20;;;;;;;6.00;2.70;;;15.90;99.90;;;;;;5071428;28;20231;-78
2022/05/26 10:14:11;;;;;;;6.65;2.85;;;15.90;99.90;;;;;;5069128;28;20648;-79
2022/05/26 10:16:48;;;;;;;4.63;2.35;;;15.90;99.90;;;;;;5067725;28;20224;-79
2022/05/26 10:19:30;;;;;;;4.90;2.60;;;15.90;99.90;;;;;;5071591;28;20217;-78
2022/05/26 10:22:18;;;;;;;6.43;2.47;;;15.90;99.90;;;;;;5071790;28;20188;-78
2022/05/26 10:25:02;;;;;;;6.35;2.83;;;15.80;99.90;;;;;;5064176;28;20196;-79
2022/05/26 10:27:50;;;;;;;7.40;3.13;;;15.80;99.90;;;;;;5068287;28;20193;-78
2022/05/26 10:30:28;;;;;;;6.60;2.80;;;15.80;99.90;;;;;;5075559;28;20200;-79
2022/05/26 10:33:24;;;;;;;4.45;2.60;;;15.80;99.90;;;;;;5072456;28;20201;-79
2022/05/26 10:36:07;;;;;;;7.30;2.58;;;15.70;99.90;;;;;;5069891;28;20221;-79
2022/05/26 10:39:04;;;;;;;5.38;2.42;;;15.70;99.90;;;;;;5072874;28;20217;-78
2022/05/26 10:41:40;;;;;;;7.03;3.15;;;15.70;99.90;;;;;;5074128;28;20197;-79
2022/05/26 10:44:19;;;;;;;4.57;2.95;;;15.60;99.90;;;;;;5072654;28;20196;-78
2022/05/26 10:46:59;;;;;;;5.40;2.58;;;15.60;99.90;;;;;;5073794;28;20254;-78
2022/05/26 10:49:37;;;;;;;5.32;2.75;;;15.50;99.90;;;;;;5073627;28;20193;-79
2022/05/26 10:52:15;;;;;;;6.63;2.55;;;15.50;99.90;;;;;;5070497;28;20189;-79
2022/05/26 10:54:54;;;;;;;5.90;2.60;;;15.40;99.90;;;;;;5075996;28;20595;-79
2022/05/26 10:57:31;;;;;;;5.70;2.50;;;15.40;99.90;;;;;;5073077;28;20185;-78
2022/05/26 11:00:07;;;;;;;6.57;2.70;;;15.40;99.90;;;;;;5075114;28;20649;-79
2022/05/26 11:02:43;;;;;;;7.68;2.80;;;15.40;99.90;;;;;;5072351;28;20200;-78
2022/05/26 11:05:20;;;;;;;4.53;2.33;;;15.40;99.90;;;;;;5075362;28;20196;-79
2022/05/26 11:07:57;;;;;;;7.55;3.00;;;15.40;99.90;;;;;;5071340;28;20283;-78
2022/05/26 11:10:33;;;;;;;6.63;2.72;;;15.40;99.90;;;;;;5073513;28;20247;-79
2022/05/26 11:13:08;;;;;;;4.72;2.42;;;15.40;99.90;;;;;;5074528;28;20284;-79
2022/05/26 11:18:38;;;;;;;5.72;2.78;;;15.40;99.90;;;;;;5075226;28;20251;-78
2022/05/26 11:21:09;;;;;;;5.80;2.95;;;15.40;99.90;;;;;;5073613;28;20200;-79
2022/05/26 11:23:43;;;;;;;7.10;2.75;;;15.30;99.90;;;;;;5072925;28;20203;-79
2022/05/26 11:26:28;;;;;;;4.55;2.45;;;15.30;99.90;;;;;;5077617;28;20193;-79
2022/05/26 11:29:04;;;;;;;8.13;3.42;;;15.30;99.90;;;;;;5073383;28;20197;-78
2022/05/26 11:37:27;;;;;;;13.05;3.05;;;15.20;99.90;;;;;;5070267;28;20284;-79
2022/05/26 11:40:06;;;;;;;5.40;2.47;;;15.20;99.90;;;;;;5065135;28;20273;-79
2022/05/26 11:42:39;;;;;;;5.97;2.70;;;15.20;99.90;;;;;;5071985;28;20189;-79
2022/05/26 11:45:24;;;;;;;8.15;3.08;;;15.20;99.90;;;;;;5069254;28;20204;-79
2022/05/26 11:47:58;;;;;;;7.72;2.85;;;15.20;99.90;;;;;;5071597;28;20195;-78
2022/05/26 11:50:49;;;;;;;9.00;3.20;;;15.20;99.90;;;;;;5070378;28;20207;-79
2022/05/26 11:53:45;;;;;;;6.00;3.00;;;15.10;99.90;;;;;;5070215;28;20193;-78
2022/05/26 11:56:44;;;;;;;3.90;2.83;;;15.10;99.90;;;;;;5075593;28;20193;-79
2022/05/26 11:59:42;;;;;;;7.97;3.05;;;15.10;99.90;;;;;;5069623;28;20635;-79
2022/05/26 12:02:39;;;;;;;7.90;3.42;;;15.10;99.90;;;;;;5062243;28;20220;-79
2022/05/26 12:05:47;;;;;;;7.07;3.33;;;15.10;99.90;;;;;;5073137;28;20182;-79
2022/05/26 12:08:41;;;;;;;6.72;3.58;;;15.10;99.90;;;;;;5070450;28;20286;-79
2022/05/26 12:11:13;;;;;;;8.13;2.95;;;15.00;99.90;;;;;;5071603;28;20193;-79
2022/05/26 12:14:02;;;;;;;5.35;3.17;;;15.00;99.90;;;;;;5072117;28;20212;-79
2022/05/26 12:16:34;;;;;;;4.68;2.50;;;15.00;99.90;;;;;;5072241;28;20245;-79
2022/05/26 12:19:06;;;;;;;4.28;2.67;;;15.10;99.90;;;;;;5070472;28;20276;-79
2022/05/26 12:21:47;;;;;;;7.03;2.70;;;15.10;99.90;;;;;;5073425;28;20189;-79
2022/05/26 12:24:52;;;;;;;4.30;3.00;;;15.10;99.90;;;;;;5072118;28;20284;-79
2022/05/26 12:27:59;;;;;;;6.13;2.85;;;15.10;99.90;;;;;;5076320;28;20283;-79
2022/05/26 12:30:44;;;;;;;4.95;2.80;;;15.10;99.90;;;;;;5009939;28;20275;-79
2022/05/26 12:33:38;;;;;;;5.80;3.47;;;15.00;99.90;;;;;;5069933;28;20550;-79
2022/05/26 12:36:23;;;;;;;4.28;2.83;;;15.00;99.90;;;;;;5071538;28;20287;-79
2022/05/26 12:39:04;;;;;;;5.50;3.13;;;15.00;99.90;;;;;;5072117;28;20212;-79
2022/05/26 12:41:51;;;;;;;7.32;3.60;;;15.00;99.90;;;;;;5071260;28;20239;-79
2022/05/26 12:44:39;;;;;;;10.45;4.15;;;15.00;99.90;;;;;;5071141;28;20193;-79
2022/05/26 12:47:40;;;;;;;11.57;4.63;;;14.90;99.90;;;;;;5070904;28;20193;-79
2022/05/26 12:50:12;;;;;;;7.78;4.38;;;14.90;99.90;;;;;;5070775;28;20238;-79
2022/05/26 12:52:45;;;;;;;8.13;4.90;;;14.80;99.90;;;;;;5072892;28;20566;-79
2022/05/26 12:55:23;;;;;;;6.53;4.43;;;14.80;99.90;;;;;;5072054;28;20189;-79
2022/05/26 12:58:01;;;;;;;9.57;4.40;;;14.70;99.90;;;;;;5076747;28;20212;-79
2022/05/26 13:00:39;;;;;;;6.20;4.07;;;14.80;99.90;;;;;;5072059;28;20612;-79
2022/05/26 13:03:16;;;;;;;7.20;4.00;;;14.80;99.90;;;;;;5071516;28;20196;-79
2022/05/26 13:05:51;;;;;;;8.15;5.30;;;14.80;99.90;;;;;;5071604;28;20200;-78
2022/05/26 13:08:24;;;;;;;9.75;5.65;;;14.80;99.90;;;;;;5068362;28;20318;-79
2022/05/26 13:10:58;;;;;;;9.25;5.03;;;14.70;99.90;;;;;;5071280;28;20197;-79
2022/05/26 13:13:37;;;;;;;8.32;5.60;;;14.80;99.90;;;;;;5070972;28;20197;-79
2022/05/26 13:16:29;;;;;;;10.25;5.13;;;14.70;99.90;;;;;;5068476;28;20196;-79
2022/05/26 13:19:12;;;;;;;8.93;5.72;;;14.70;99.90;;;;;;5072074;28;20806;-79
2022/05/26 13:21:47;;;;;;;10.98;5.25;;;14.70;99.90;;;;;;5070641;28;20286;-79
2022/05/26 13:24:20;;;;;;;6.72;4.80;;;14.70;99.90;;;;;;5075874;28;20201;-79
2022/05/26 13:26:52;;;;;;;7.13;5.30;;;14.70;99.90;;;;;;5071464;28;20197;-79
2022/05/26 13:29:23;;;;;;;6.43;4.95;;;14.70;99.90;;;;;;5072456;28;20185;-79
2022/05/26 13:34:54;;;;;;;9.55;5.10;;;14.60;99.90;;;;;;5068864;28;20200;-79
2022/05/26 13:37:26;;;;;;;7.85;5.30;;;14.60;99.90;;;;;;5069795;28;20675;-79
2022/05/26 13:40:12;;;;;;;10.15;5.28;;;14.60;99.90;;;;;;5071243;28;20337;-79
2022/05/26 13:42:45;;;;;;;9.73;5.35;;;14.60;99.90;;;;;;5070752;28;20258;-79
2022/05/26 13:45:26;;;;;;;8.27;5.28;;;14.60;99.90;;;;;;5066165;28;20602;-79
2022/05/26 13:48:30;;;;;;;8.10;5.10;;;14.50;99.90;;;;;;5071308;28;20197;-79
2022/05/26 13:51:17;;;;;;;6.53;4.57;;;14.50;99.90;;;;;;5067858;28;20668;-76
2022/05/26 13:53:49;;;;;;;10.25;4.65;;;14.50;99.90;;;;;;5070982;28;20216;-76
2022/05/26 13:56:30;;;;;;;8.52;5.40;;;14.50;99.90;;;;;;5068773;28;20200;-76
2022/05/26 13:59:09;;;;;;;9.15;5.15;;;14.50;99.90;;;;;;5069154;28;20549;-77
2022/05/26 14:01:48;;;;;;;9.23;5.13;;;14.40;99.90;;;;;;5070433;28;20620;-76
2022/05/26 14:04:25;;;;;;;9.45;5.03;;;14.30;99.90;;;;;;5072365;28;20192;-76
2022/05/26 14:06:58;;;;;;;13.45;5.93;;;14.20;99.90;;;;;;5075067;28;20204;-76
2022/05/26 14:09:32;;;;;;;8.60;5.20;;;14.20;99.90;;;;;;5069515;28;20189;-76
2022/05/26 14:12:07;;;;;;;10.10;5.78;;;14.20;99.90;;;;;;5074886;28;20196;-76
2022/05/26 14:14:46;;;;;;;9.73;5.30;;;14.20;99.90;;;;;;5073498;28;20192;-76